Terminal Aerodrome Forecast
Issued by NWS

Home | Current Version | Previous Version | Text Only | Print | Product List | Glossary On
Versions: 1 2 3 4 5 6 7 8 9 10 11 12 13 14 15 16 17 18 19 20
000
FTUS45 KTFX 282200 AAA
TAFCTB
TAF AMD
KCTB 282219Z 2822/2918 35015KT 1SM -SN BR OVC015
      TEMPO 2822/2902 2SM -SN BR OVC030
     FM290600 35010KT 3SM -SN BR OVC015
     FM291300 36008KT 6SM -SN BR OVC035=

USA.gov is the U.S. government's official web portal to all federal, state and local government web resources and services.